createdAt,value
2018-11-23T00:00:32.043Z,4.18
2018-11-23T00:03:01.616Z,4.20
2018-11-23T00:05:30.663Z,4.24
2018-11-23T00:08:00.132Z,4.13
2018-11-23T00:10:31.106Z,4.18
2018-11-23T00:13:00.070Z,4.10
2018-11-23T00:15:29.010Z,3.90
2018-11-23T00:17:58.209Z,4.07
2018-11-23T00:20:28.262Z,4.02
2018-11-23T00:22:57.282Z,4.12
2018-11-23T00:25:26.859Z,4.18
2018-11-23T00:27:56.461Z,4.25
2018-11-23T00:30:26.530Z,4.08
2018-11-23T00:32:55.557Z,4.11
2018-11-23T00:35:25.963Z,3.86
2018-11-23T00:37:55.464Z,3.96
2018-11-23T00:40:26.567Z,3.96
2018-11-23T00:42:55.884Z,3.97
2018-11-23T00:45:24.902Z,4.23
2018-11-23T00:47:54.621Z,4.02
2018-11-23T00:50:24.296Z,4.01
2018-11-23T00:52:54.010Z,4.10
2018-11-23T00:55:23.977Z,4.27
2018-11-23T00:57:53.010Z,4.42
2018-11-23T01:00:25.412Z,4.36
2018-11-23T01:02:54.952Z,4.39
2018-11-23T01:05:23.921Z,4.18
2018-11-23T01:07:52.875Z,4.06
2018-11-23T01:10:22.980Z,4.34
2018-11-23T01:12:52.962Z,4.27
2018-11-23T01:15:21.903Z,4.22
2018-11-23T01:17:50.932Z,4.14
2018-11-23T01:20:21.228Z,4.25
2018-11-23T01:22:50.556Z,4.29
2018-11-23T01:25:20.530Z,4.08
2018-11-23T01:27:50.711Z,4.15
2018-11-23T01:30:23.368Z,4.19
2018-11-23T01:32:52.356Z,4.13
2018-11-23T01:35:21.332Z,3.96
2018-11-23T01:37:50.359Z,4.08
2018-11-23T01:40:22.006Z,4.02
2018-11-23T01:42:51.049Z,4.14
2018-11-23T01:45:20.060Z,4.11
2018-11-23T01:47:49.073Z,4.18
2018-11-23T01:50:20.491Z,4.08
2018-11-23T01:52:50.270Z,4.04
2018-11-23T01:55:20.102Z,4.25
2018-11-23T01:57:49.546Z,3.80
2018-11-23T02:00:19.682Z,3.96
2018-11-23T02:02:49.301Z,4.12
2018-11-23T02:05:18.305Z,4.17
2018-11-23T02:07:47.272Z,4.00
2018-11-23T02:10:17.121Z,3.95
2018-11-23T02:12:46.069Z,3.79
2018-11-23T02:15:17.169Z,3.98
2018-11-23T02:17:46.489Z,4.16
2018-11-23T02:20:16.646Z,3.95
2018-11-23T02:22:45.607Z,3.84
2018-11-23T02:25:14.604Z,4.07
2018-11-23T02:27:43.566Z,4.14
2018-11-23T02:30:14.628Z,3.98
2018-11-23T02:32:43.885Z,3.89
2018-11-23T02:35:13.204Z,3.86
2018-11-23T02:37:42.198Z,4.11
2018-11-23T02:40:12.522Z,4.15
2018-11-23T02:42:41.750Z,4.15
2018-11-23T02:45:13.260Z,4.03
2018-11-23T02:47:43.015Z,4.04
2018-11-23T02:50:12.020Z,3.98
2018-11-23T02:52:41.663Z,4.03
2018-11-23T02:55:11.924Z,3.95
2018-11-23T02:57:40.894Z,3.75
2018-11-23T03:00:11.918Z,3.97
2018-11-23T03:02:41.053Z,3.92
2018-11-23T03:05:11.669Z,3.97
2018-11-23T03:07:41.502Z,3.88
2018-11-23T03:10:11.742Z,3.97
2018-11-23T03:12:41.426Z,4.03
2018-11-23T03:15:12.360Z,3.91
2018-11-23T03:17:41.767Z,3.90
2018-11-23T03:20:13.055Z,3.95
2018-11-23T03:22:41.999Z,4.11
2018-11-23T03:25:11.520Z,4.02
2018-11-23T03:27:41.027Z,4.04
2018-11-23T03:30:12.174Z,3.97
2018-11-23T03:32:41.311Z,4.14
2018-11-23T03:35:10.257Z,4.10
2018-11-23T03:37:39.269Z,4.23
2018-11-23T03:40:08.240Z,4.06
2018-11-23T03:42:37.171Z,4.06
2018-11-23T03:45:07.619Z,4.01
2018-11-23T03:47:36.552Z,4.00
2018-11-23T03:50:06.128Z,3.82
2018-11-23T03:52:35.177Z,4.06
2018-11-23T03:55:04.148Z,3.79
2018-11-23T03:57:33.159Z,3.89
2018-11-23T04:00:02.097Z,3.82
2018-11-23T04:02:31.065Z,3.83
2018-11-23T04:04:59.989Z,3.89
2018-11-23T04:07:28.956Z,4.07
2018-11-23T04:09:57.879Z,3.78
2018-11-23T04:12:26.778Z,3.86
2018-11-23T04:14:55.746Z,4.01
2018-11-23T04:17:24.722Z,3.90
2018-11-23T04:19:53.646Z,3.85
2018-11-23T04:22:22.604Z,3.95
2018-11-23T04:24:51.975Z,3.82
2018-11-23T04:27:20.913Z,3.89
2018-11-23T04:29:49.866Z,3.85
2018-11-23T04:32:18.817Z,3.71
2018-11-23T04:34:47.766Z,3.86
2018-11-23T04:37:16.739Z,4.00
2018-11-23T04:39:45.699Z,4.02
2018-11-23T04:42:14.619Z,4.13
2018-11-23T04:44:43.618Z,4.07
2018-11-23T04:47:12.725Z,4.01
2018-11-23T04:49:41.670Z,4.02
2018-11-23T04:52:10.614Z,4.04
2018-11-23T04:54:39.556Z,4.11
2018-11-23T04:57:08.496Z,4.11
2018-11-23T04:59:37.790Z,3.97
2018-11-23T05:02:06.756Z,3.91
2018-11-23T05:04:35.715Z,3.79
2018-11-23T05:07:04.678Z,3.97
2018-11-23T05:09:33.602Z,4.09
2018-11-23T05:12:02.505Z,4.04
2018-11-23T05:14:31.480Z,4.15
2018-11-23T05:17:00.420Z,4.12
2018-11-23T05:19:29.368Z,4.07
2018-11-23T05:21:58.297Z,4.15
2018-11-23T05:24:27.206Z,4.08
2018-11-23T05:26:56.143Z,3.89
2018-11-23T05:29:25.104Z,3.79
2018-11-23T05:31:54.013Z,3.80
2018-11-23T05:34:22.981Z,3.77
2018-11-23T05:36:51.981Z,3.78
2018-11-23T05:39:20.920Z,3.82
2018-11-23T05:41:49.911Z,4.12
2018-11-23T05:44:18.867Z,3.91
2018-11-23T05:46:47.821Z,4.13
2018-11-23T05:49:16.739Z,4.11
2018-11-23T05:51:45.725Z,4.02
2018-11-23T05:54:14.683Z,3.81
2018-11-23T05:56:43.631Z,3.91
2018-11-23T05:59:12.973Z,4.02
2018-11-23T06:01:41.936Z,4.02
2018-11-23T06:04:10.900Z,4.05
2018-11-23T06:06:42.486Z,4.02
2018-11-23T06:09:08.797Z,3.85
2018-11-23T06:11:37.752Z,3.97
2018-11-23T06:14:06.673Z,3.97
2018-11-23T06:16:35.633Z,3.97
2018-11-23T06:19:04.601Z,3.97
2018-11-23T06:21:33.539Z,4.14
2018-11-23T06:24:02.533Z,4.11
2018-11-23T06:26:31.750Z,4.13
2018-11-23T06:29:01.093Z,4.22
2018-11-23T06:31:30.021Z,4.04
2018-11-23T06:33:58.991Z,3.92
2018-11-23T06:36:27.947Z,3.98
2018-11-23T06:38:56.923Z,3.99
2018-11-23T06:41:25.867Z,3.58
2018-11-23T06:43:54.792Z,3.73
2018-11-23T06:46:23.751Z,3.78
2018-11-23T06:48:52.760Z,4.04
2018-11-23T06:51:21.755Z,4.05
2018-11-23T06:53:50.696Z,4.15
2018-11-23T06:56:19.647Z,4.17
2018-11-23T06:58:48.572Z,3.90
2018-11-23T07:01:17.529Z,4.02
2018-11-23T07:03:46.425Z,3.95
2018-11-23T07:06:15.361Z,3.91
2018-11-23T07:08:44.350Z,3.98
2018-11-23T07:11:13.582Z,3.95
2018-11-23T07:13:42.498Z,4.07
2018-11-23T07:16:11.455Z,4.15
2018-11-23T07:18:40.439Z,4.10
2018-11-23T07:21:09.387Z,3.95
2018-11-23T07:23:38.365Z,4.10
2018-11-23T07:26:08.205Z,3.84
2018-11-23T07:28:37.147Z,3.96
2018-11-23T07:31:06.073Z,3.86
2018-11-23T07:33:35.020Z,3.90
2018-11-23T07:36:03.960Z,4.04
2018-11-23T07:38:32.876Z,3.87
2018-11-23T07:41:13.114Z,4.09
2018-11-23T07:43:42.060Z,3.98
2018-11-23T07:46:10.991Z,3.91
2018-11-23T07:48:39.947Z,3.96
2018-11-23T07:51:08.870Z,3.98
2018-11-23T07:53:37.800Z,3.89
2018-11-23T07:56:06.762Z,3.95
2018-11-23T07:58:35.681Z,3.95
2018-11-23T08:01:04.695Z,4.06
2018-11-23T08:03:33.630Z,4.11
2018-11-23T08:06:02.535Z,3.95
2018-11-23T08:08:31.487Z,4.16
2018-11-23T08:11:03.082Z,4.01
2018-11-23T08:13:32.023Z,4.12
2018-11-23T08:16:00.970Z,3.92
2018-11-23T08:18:29.938Z,4.02
2018-11-23T08:20:58.853Z,3.92
2018-11-23T08:23:27.791Z,4.17
2018-11-23T08:25:56.741Z,3.84
2018-11-23T08:28:25.679Z,3.96
2018-11-23T08:30:54.605Z,4.05
2018-11-23T08:33:23.531Z,4.07
2018-11-23T08:35:52.443Z,4.18
2018-11-23T08:38:21.365Z,3.86
2018-11-23T08:40:50.337Z,3.88
2018-11-23T08:43:19.311Z,4.02
2018-11-23T08:45:48.310Z,3.85
2018-11-23T08:48:17.277Z,4.00
2018-11-23T08:50:46.199Z,3.79
2018-11-23T08:53:15.127Z,3.93
2018-11-23T08:55:44.080Z,3.89
2018-11-23T08:58:13.003Z,3.87
2018-11-23T09:00:41.954Z,4.11
2018-11-23T09:03:11.236Z,3.94
2018-11-23T09:05:40.157Z,3.95
2018-11-23T09:08:09.113Z,4.11
2018-11-23T09:10:40.233Z,4.00
2018-11-23T09:13:09.138Z,3.89
2018-11-23T09:15:38.075Z,4.10
2018-11-23T09:18:07.020Z,4.11
2018-11-23T09:20:35.963Z,4.32
2018-11-23T09:23:05.000Z,4.33
2018-11-23T09:25:33.952Z,4.10
2018-11-23T09:28:02.909Z,4.07
2018-11-23T09:30:31.889Z,4.08
2018-11-23T09:33:00.781Z,4.07
2018-11-23T09:35:30.058Z,4.14
2018-11-23T09:37:59.002Z,4.34
2018-11-23T09:40:29.274Z,4.15
2018-11-23T09:42:58.375Z,4.20
2018-11-23T09:45:28.814Z,4.13
2018-11-23T09:47:59.232Z,4.31
2018-11-23T09:50:28.622Z,4.21
2018-11-23T09:52:58.976Z,4.24
2018-11-23T09:55:28.831Z,4.40
2018-11-23T09:57:57.745Z,4.29
2018-11-23T10:00:29.178Z,4.29
2018-11-23T10:02:58.932Z,4.30
2018-11-23T10:05:28.741Z,4.19
2018-11-23T10:07:59.078Z,4.28
2018-11-23T10:10:28.786Z,4.33
2018-11-23T10:12:57.756Z,4.41
2018-11-23T10:15:27.846Z,4.41
2018-11-23T10:17:56.755Z,4.43
2018-11-23T10:20:28.129Z,4.59
2018-11-23T10:22:57.184Z,4.46
2018-11-23T10:25:28.276Z,4.10
2018-11-23T10:27:57.487Z,4.06
2018-11-23T10:30:27.662Z,4.28
2018-11-23T10:32:58.136Z,4.20
2018-11-23T10:35:27.407Z,4.37
2018-11-23T10:37:57.507Z,4.17
2018-11-23T10:40:27.974Z,4.23
2018-11-23T10:42:56.898Z,4.28
2018-11-23T10:45:27.134Z,4.39
2018-11-23T10:47:56.906Z,4.53
2018-11-23T10:50:27.311Z,4.54
2018-11-23T10:55:32.759Z,4.53
2018-11-23T10:58:01.704Z,4.52
2018-11-23T11:00:35.863Z,4.68
2018-11-23T11:03:10.598Z,4.64
2018-11-23T11:05:44.907Z,4.70
2018-11-23T11:08:13.819Z,4.63
2018-11-23T11:10:42.774Z,4.79
2018-11-23T11:13:11.728Z,4.62
2018-11-23T11:15:40.778Z,4.67
2018-11-23T11:18:09.718Z,4.80
2018-11-23T11:20:38.641Z,4.56
2018-11-23T11:23:07.602Z,4.77
2018-11-23T11:25:36.562Z,4.60
2018-11-23T11:28:05.511Z,4.86
2018-11-23T11:30:34.419Z,4.56
2018-11-23T11:33:03.319Z,4.50
2018-11-23T11:35:32.286Z,4.60
2018-11-23T11:38:01.241Z,4.67
2018-11-23T11:40:30.146Z,4.77
2018-11-23T11:42:59.082Z,4.99
2018-11-23T11:45:28.069Z,4.94
2018-11-23T11:47:57.004Z,5.01
2018-11-23T11:50:25.899Z,5.06
2018-11-23T11:52:54.845Z,5.03
2018-11-23T11:55:23.783Z,5.17
2018-11-23T11:57:52.743Z,5.16
2018-11-23T12:00:23.873Z,4.87
2018-11-23T12:02:52.984Z,4.96
2018-11-23T12:05:21.915Z,4.99
2018-11-23T12:07:50.850Z,5.05
2018-11-23T12:10:22.419Z,5.00
2018-11-23T12:12:51.451Z,4.89
2018-11-23T12:15:20.476Z,4.90
2018-11-23T12:17:49.492Z,4.89
2018-11-23T12:20:19.975Z,4.96
2018-11-23T12:22:55.445Z,5.22
2018-11-23T12:25:24.496Z,5.09
2018-11-23T12:27:53.599Z,5.06
2018-11-23T12:30:23.096Z,5.13
2018-11-23T12:32:53.274Z,5.12
2018-11-23T12:35:22.684Z,4.96
2018-11-23T12:37:51.625Z,4.90
2018-11-23T12:40:21.173Z,5.01
2018-11-23T12:42:50.484Z,5.00
2018-11-23T12:45:21.813Z,5.01
2018-11-23T12:47:50.730Z,4.97
2018-11-23T12:50:21.262Z,5.01
2018-11-23T12:52:50.186Z,4.87
2018-11-23T12:55:19.567Z,5.00
2018-11-23T12:57:48.631Z,5.09
2018-11-23T13:00:20.835Z,5.16
2018-11-23T13:02:51.098Z,5.19
2018-11-23T13:05:20.976Z,5.24
2018-11-23T13:07:50.505Z,5.08
2018-11-23T13:10:19.472Z,5.22
2018-11-23T13:12:50.952Z,5.44
2018-11-23T13:15:17.335Z,5.33
2018-11-23T13:17:46.298Z,5.27
2018-11-23T13:20:15.935Z,5.43
2018-11-23T13:22:45.030Z,5.36
2018-11-23T13:25:17.094Z,5.35
2018-11-23T13:27:46.032Z,5.13
2018-11-23T13:30:18.361Z,5.05
2018-11-23T13:32:47.312Z,5.12
2018-11-23T13:35:17.353Z,5.00
2018-11-23T13:37:46.260Z,4.95
2018-11-23T13:40:16.617Z,4.80
2018-11-23T13:42:45.781Z,5.08
2018-11-23T13:45:16.260Z,5.05
2018-11-23T13:47:45.194Z,5.20
2018-11-23T13:50:15.413Z,5.17
2018-11-23T13:52:45.462Z,5.19
2018-11-23T13:55:14.447Z,5.32
2018-11-23T13:57:43.419Z,5.27
2018-11-23T14:00:14.444Z,5.01
2018-11-23T14:02:44.108Z,5.19
2018-11-23T14:05:15.446Z,5.35
2018-11-23T14:07:45.391Z,5.39
2018-11-23T14:10:15.876Z,5.36
2018-11-23T14:12:45.188Z,5.24
2018-11-23T14:15:15.659Z,5.33
2018-11-23T14:17:45.593Z,5.33
2018-11-23T14:20:15.390Z,5.32
2018-11-23T14:22:44.322Z,5.10
2018-11-23T14:25:14.817Z,5.37
2018-11-23T14:27:44.332Z,5.47
2018-11-23T14:30:15.585Z,5.40
2018-11-23T14:32:44.607Z,5.45
2018-11-23T14:35:14.994Z,5.44
2018-11-23T14:37:44.545Z,5.35
2018-11-23T14:40:13.991Z,5.54
2018-11-23T14:42:43.832Z,5.19
2018-11-23T14:45:16.363Z,5.14
2018-11-23T14:47:45.509Z,5.11
2018-11-23T14:50:16.819Z,5.05
2018-11-23T14:52:47.914Z,5.31
2018-11-23T14:55:17.234Z,5.36
2018-11-23T14:57:46.556Z,5.42
2018-11-23T15:00:31.811Z,5.48
2018-11-23T15:03:01.967Z,5.59
2018-11-23T15:05:30.884Z,5.50
2018-11-23T15:07:59.790Z,5.32
2018-11-23T15:10:29.868Z,5.10
2018-11-23T15:12:59.840Z,5.28
2018-11-23T15:15:30.192Z,5.09
2018-11-23T15:17:59.712Z,5.31
2018-11-23T15:20:31.451Z,5.17
2018-11-23T15:23:01.881Z,5.47
2018-11-23T15:25:30.826Z,5.33
2018-11-23T15:27:59.757Z,5.32
2018-11-23T15:30:31.513Z,5.33
2018-11-23T15:33:00.466Z,5.47
2018-11-23T15:35:30.541Z,5.31
2018-11-23T15:37:59.556Z,5.31
2018-11-23T15:40:29.381Z,5.44
2018-11-23T15:43:00.723Z,5.54
2018-11-23T15:45:30.666Z,5.57
2018-11-23T15:48:00.217Z,5.29
2018-11-23T15:50:31.576Z,5.53
2018-11-23T15:53:00.550Z,5.33
2018-11-23T15:55:31.088Z,5.47
2018-11-23T15:58:01.581Z,5.22
2018-11-23T16:00:32.853Z,5.20
2018-11-23T16:03:01.835Z,5.17
2018-11-23T16:05:30.790Z,5.17
2018-11-23T16:08:01.427Z,5.29
2018-11-23T16:10:31.791Z,5.07
2018-11-23T16:13:01.734Z,5.23
2018-11-23T16:15:31.085Z,5.24
2018-11-23T16:18:00.645Z,5.38
2018-11-23T16:20:31.968Z,5.35
2018-11-23T16:23:03.197Z,5.14
2018-11-23T16:25:32.127Z,5.22
2018-11-23T16:28:02.414Z,5.41
2018-11-23T16:30:32.679Z,5.43
2018-11-23T16:33:02.754Z,5.39
2018-11-23T16:35:34.173Z,5.27
2018-11-23T16:38:04.732Z,5.35
2018-11-23T16:40:34.917Z,5.39
2018-11-23T16:43:04.320Z,5.42
2018-11-23T16:45:34.560Z,5.59
2018-11-23T16:48:04.788Z,5.49
2018-11-23T16:50:33.739Z,5.65
2018-11-23T16:53:03.171Z,5.44
2018-11-23T16:55:32.270Z,5.45
2018-11-23T16:58:03.445Z,5.18
2018-11-23T17:00:33.403Z,5.15
2018-11-23T17:03:04.718Z,5.24
2018-11-23T17:05:37.168Z,5.52
2018-11-23T17:08:07.195Z,5.35
2018-11-23T17:10:36.161Z,5.55
2018-11-23T17:13:05.138Z,5.69
2018-11-23T17:15:34.107Z,5.72
2018-11-23T17:18:03.055Z,5.70
2018-11-23T17:20:33.212Z,5.70
2018-11-23T17:23:03.124Z,5.59
2018-11-23T17:25:32.524Z,5.67
2018-11-23T17:28:03.082Z,5.75
2018-11-23T17:30:33.062Z,5.62
2018-11-23T17:33:02.024Z,5.76
2018-11-23T17:35:30.966Z,5.77
2018-11-23T17:37:59.931Z,5.81
2018-11-23T17:40:30.576Z,5.86
2018-11-23T17:42:59.477Z,5.58
2018-11-23T17:45:30.477Z,5.48
2018-11-23T17:47:59.502Z,5.58
2018-11-23T17:50:29.790Z,5.46
2018-11-23T17:52:59.036Z,5.56
2018-11-23T17:55:27.995Z,5.66
2018-11-23T17:57:57.118Z,5.69
2018-11-23T18:00:28.262Z,5.42
2018-11-23T18:02:58.013Z,5.61
2018-11-23T18:05:27.590Z,5.63
2018-11-23T18:07:56.548Z,5.77
2018-11-23T18:10:26.826Z,5.66
2018-11-23T18:12:56.521Z,5.76
2018-11-23T18:15:26.543Z,5.71
2018-11-23T18:17:56.562Z,5.69
2018-11-23T18:20:26.376Z,5.65
2018-11-23T18:22:56.087Z,5.72
2018-11-23T18:25:27.468Z,5.77
2018-11-23T18:28:00.651Z,5.72
2018-11-23T18:30:31.643Z,5.64
2018-11-23T18:33:01.501Z,5.65
2018-11-23T18:35:30.436Z,5.75
2018-11-23T18:37:59.386Z,5.81
2018-11-23T18:40:28.323Z,5.84
2018-11-23T18:42:57.254Z,5.70
2018-11-23T18:45:26.211Z,5.65
2018-11-23T18:47:55.142Z,5.79
2018-11-23T18:50:24.095Z,5.69
2018-11-23T18:52:53.025Z,5.82
2018-11-23T18:55:21.972Z,5.70
2018-11-23T18:57:51.112Z,5.64
2018-11-23T19:00:20.078Z,5.52
2018-11-23T19:02:49.006Z,5.58
2018-11-23T19:05:20.397Z,5.68
2018-11-23T19:07:49.316Z,5.59
2018-11-23T19:10:18.259Z,5.76
2018-11-23T19:12:47.200Z,5.81
2018-11-23T19:15:17.561Z,5.75
2018-11-23T19:17:45.977Z,5.58
2018-11-23T19:20:16.005Z,5.58
2018-11-23T19:22:51.096Z,5.42
2018-11-23T19:25:20.005Z,5.54
2018-11-23T19:27:48.937Z,5.43
2018-11-23T19:30:19.001Z,5.31
2018-11-23T19:32:47.945Z,5.36
2018-11-23T19:35:16.905Z,5.43
2018-11-23T19:37:45.854Z,5.71
2018-11-23T19:40:15.685Z,5.65
2018-11-23T19:42:45.223Z,5.71
2018-11-23T19:45:15.116Z,5.57
2018-11-23T19:47:44.162Z,5.51
2018-11-23T19:50:14.177Z,5.44
2018-11-23T19:52:43.119Z,5.60
2018-11-23T19:55:13.879Z,5.41
2018-11-23T19:57:42.848Z,5.73
2018-11-23T20:00:13.598Z,5.79
2018-11-23T20:02:42.562Z,5.75
2018-11-23T20:05:11.499Z,5.72
2018-11-23T20:07:40.417Z,5.81
2018-11-23T20:10:16.324Z,5.85
2018-11-23T20:12:46.075Z,5.85
2018-11-23T20:15:16.999Z,5.85
2018-11-23T20:17:45.966Z,5.93
2018-11-23T20:20:15.629Z,5.92
2018-11-23T20:22:44.907Z,5.74
2018-11-23T20:25:18.773Z,5.79
2018-11-23T20:27:48.761Z,5.78
2018-11-23T20:30:18.606Z,5.74
2018-11-23T20:32:47.592Z,5.89
2018-11-23T20:35:22.413Z,5.63
2018-11-23T20:37:51.347Z,5.84
2018-11-23T20:40:21.287Z,5.91
2018-11-23T20:42:50.281Z,5.81
2018-11-23T20:45:19.227Z,5.78
2018-11-23T20:47:48.195Z,5.68
2018-11-23T20:50:17.796Z,5.66
2018-11-23T20:52:46.736Z,5.73
2018-11-23T20:55:16.923Z,5.79
2018-11-23T20:57:45.845Z,5.71
2018-11-23T21:00:16.594Z,5.87
2018-11-23T21:02:46.128Z,5.72
2018-11-23T21:05:16.172Z,5.86
2018-11-23T21:07:45.125Z,5.75
2018-11-23T21:10:20.727Z,5.80
2018-11-23T21:12:49.054Z,5.66
2018-11-23T21:15:25.154Z,5.81
2018-11-23T21:17:54.117Z,5.64
2018-11-23T21:20:23.086Z,5.78
2018-11-23T21:22:52.049Z,5.89
2018-11-23T21:25:20.954Z,5.88
2018-11-23T21:27:49.862Z,5.89
2018-11-23T21:30:21.800Z,5.80
2018-11-23T21:32:51.265Z,5.74
2018-11-23T21:35:20.199Z,5.80
2018-11-23T21:37:49.164Z,5.64
2018-11-23T21:40:18.160Z,5.59
2018-11-23T21:42:47.118Z,5.68
2018-11-23T21:45:16.978Z,5.93
2018-11-23T21:47:45.948Z,5.69
2018-11-23T21:50:16.614Z,5.41
2018-11-23T21:52:45.578Z,5.55
2018-11-23T21:55:29.306Z,5.53
2018-11-23T21:57:58.234Z,5.71
2018-11-23T22:00:27.184Z,5.21
2018-11-23T22:02:56.122Z,5.45
2018-11-23T22:05:25.021Z,5.49
2018-11-23T22:07:53.973Z,5.09
2018-11-23T22:10:22.886Z,5.41
2018-11-23T22:12:52.094Z,5.55
2018-11-23T22:15:23.852Z,5.65
2018-11-23T22:17:54.804Z,5.64
2018-11-23T22:20:24.057Z,5.70
2018-11-23T22:22:52.974Z,5.75
2018-11-23T22:25:22.690Z,5.57
2018-11-23T22:27:51.622Z,5.63
2018-11-23T22:30:25.085Z,5.65
2018-11-23T22:32:54.005Z,5.55
2018-11-23T22:35:22.971Z,5.53
2018-11-23T22:37:52.231Z,5.55
2018-11-23T22:40:21.394Z,5.37
2018-11-23T22:42:51.719Z,5.42
2018-11-23T22:45:20.722Z,5.68
2018-11-23T22:47:49.634Z,5.80
2018-11-23T22:50:19.670Z,5.50
2018-11-23T22:52:48.672Z,5.61
2018-11-23T22:55:18.339Z,5.45
2018-11-23T22:57:47.259Z,5.72
2018-11-23T23:00:23.762Z,5.63
2018-11-23T23:02:52.696Z,5.63
2018-11-23T23:05:22.778Z,5.74
2018-11-23T23:07:51.739Z,5.81
2018-11-23T23:10:20.684Z,5.70
2018-11-23T23:12:49.640Z,5.64
2018-11-23T23:15:18.543Z,5.75
2018-11-23T23:17:47.463Z,5.58
2018-11-23T23:20:17.772Z,5.58
2018-11-23T23:22:50.916Z,5.70
2018-11-23T23:25:20.494Z,5.49
2018-11-23T23:27:49.424Z,5.60
2018-11-23T23:30:21.232Z,5.70
2018-11-23T23:32:51.080Z,5.54
2018-11-23T23:35:19.991Z,5.69
2018-11-23T23:37:48.959Z,5.70
2018-11-23T23:40:18.359Z,5.50
2018-11-23T23:42:47.852Z,5.56
2018-11-23T23:45:17.744Z,5.51
2018-11-23T23:47:46.756Z,5.57
2018-11-23T23:50:20.547Z,5.58
2018-11-23T23:52:50.188Z,5.55
2018-11-23T23:55:19.381Z,5.57
2018-11-23T23:57:48.783Z,5.56
